Time;durP1;ratioP1;P1;durP2;ratioP2;P2;SDS_P1;SDS_P2;PMS_P1;PMS_P2;Temp;Humidity;BMP_temperature;BMP_pressure;BME280_temperature;BME280_humidity;BME280_pressure;Samples;Min_cycle;Max_cycle;Signal;HPM_P1;HPM_P2
2023/01/14 00:02:23;;;;;;;10.07;3.08;;;7.50;99.90;;;;;;5033967;28;20074;-91
2023/01/14 00:04:49;;;;;;;12.85;2.80;;;7.50;99.90;;;;;;5049478;28;20045;-92
2023/01/14 00:07:16;;;;;;;11.38;3.00;;;7.50;99.90;;;;;;5043739;28;20118;-91
2023/01/14 00:09:42;;;;;;;11.25;2.80;;;7.50;99.90;;;;;;5051438;28;20088;-92
2023/01/14 00:12:08;;;;;;;13.38;2.88;;;7.40;99.90;;;;;;5032375;28;20072;-93
2023/01/14 00:14:33;;;;;;;14.70;2.78;;;7.50;99.90;;;;;;5051442;28;20040;-93
2023/01/14 00:17:00;;;;;;;9.50;2.20;;;7.40;99.90;;;;;;5036031;28;20053;-94
2023/01/14 00:19:26;;;;;;;12.23;2.83;;;7.40;99.90;;;;;;5052642;28;20067;-93
2023/01/14 00:21:54;;;;;;;10.95;3.15;;;7.40;99.90;;;;;;5052071;28;20052;-92
2023/01/14 00:24:23;;;;;;;16.05;3.85;;;7.20;99.90;;;;;;5049628;28;20143;-95
2023/01/14 00:26:54;;;;;;;12.18;3.28;;;7.20;99.90;;;;;;5049137;28;20091;-93
2023/01/14 00:29:31;;;;;;;11.30;2.60;;;7.30;99.90;;;;;;5032403;28;20037;-92
2023/01/14 00:32:00;;;;;;;11.13;2.42;;;7.60;99.90;;;;;;5034629;28;20097;-91
2023/01/14 00:34:27;;;;;;;13.85;2.47;;;7.30;99.90;;;;;;5034322;28;20091;-93
2023/01/14 00:36:53;;;;;;;16.25;2.85;;;7.50;99.90;;;;;;5034650;28;20129;-93
2023/01/14 00:39:19;;;;;;;12.63;2.72;;;7.30;99.90;;;;;;5033263;28;20045;-93
2023/01/14 00:41:45;;;;;;;7.35;1.85;;;7.30;99.90;;;;;;5050126;28;20032;-92
2023/01/14 00:44:19;;;;;;;12.40;2.53;;;7.30;99.90;;;;;;5039059;28;20045;-91
2023/01/14 00:46:46;;;;;;;13.32;2.88;;;7.30;99.90;;;;;;5072125;28;20082;-93
2023/01/14 00:49:17;;;;;;;16.70;3.45;;;7.30;99.90;;;;;;5038040;28;20059;-91
2023/01/14 00:51:43;;;;;;;12.70;2.53;;;7.30;99.90;;;;;;5039069;28;20078;-90
2023/01/14 00:54:09;;;;;;;12.95;2.92;;;7.30;99.90;;;;;;5038191;28;20036;-93
2023/01/14 00:56:37;;;;;;;15.75;2.63;;;7.30;99.90;;;;;;5036103;28;20037;-93
2023/01/14 00:59:03;;;;;;;17.08;2.85;;;7.30;99.90;;;;;;5053203;28;20158;-92
2023/01/14 01:01:29;;;;;;;13.07;3.00;;;7.30;99.90;;;;;;5051090;28;20040;-92
2023/01/14 01:03:56;;;;;;;12.07;2.35;;;7.60;99.90;;;;;;5056298;28;20044;-93
2023/01/14 01:06:24;;;;;;;10.18;2.50;;;7.30;99.90;;;;;;5038147;28;20468;-91
2023/01/14 01:08:56;;;;;;;10.77;2.97;;;7.60;99.90;;;;;;5037107;28;20035;-91
2023/01/14 01:11:21;;;;;;;9.85;1.98;;;7.40;99.90;;;;;;5035967;28;20150;-92
2023/01/14 01:13:47;;;;;;;11.18;2.42;;;7.40;99.90;;;;;;5052396;28;20478;-91
2023/01/14 01:16:15;;;;;;;14.23;3.40;;;7.40;99.90;;;;;;5037860;28;20040;-93
2023/01/14 01:18:42;;;;;;;9.70;1.98;;;7.50;99.90;;;;;;5050818;28;20050;-93
2023/01/14 01:21:12;;;;;;;12.70;3.15;;;7.30;99.90;;;;;;5050047;28;20068;-92
2023/01/14 01:23:40;;;;;;;6.80;2.20;;;7.10;99.90;;;;;;5034377;28;20044;-92
2023/01/14 01:26:11;;;;;;;4.82;1.75;;;7.30;99.90;;;;;;5048916;28;20033;-92
2023/01/14 01:28:36;;;;;;;9.40;2.03;;;7.30;99.90;;;;;;5037937;28;20094;-93
2023/01/14 01:31:05;;;;;;;9.93;1.95;;;7.30;99.90;;;;;;5037550;28;20068;-93
2023/01/14 01:33:30;;;;;;;15.50;2.83;;;7.30;99.90;;;;;;5036613;28;20484;-94
2023/01/14 01:36:02;;;;;;;17.63;2.65;;;7.30;99.90;;;;;;5054477;28;20052;-93
2023/01/14 01:38:29;;;;;;;13.80;2.90;;;7.20;99.90;;;;;;5038262;28;20571;-94
2023/01/14 01:40:58;;;;;;;10.60;3.03;;;7.40;99.90;;;;;;5038327;28;20087;-93
2023/01/14 01:43:26;;;;;;;13.48;2.67;;;7.30;99.90;;;;;;5034007;28;20077;-92
2023/01/14 01:45:53;;;;;;;12.30;3.30;;;7.20;99.90;;;;;;5052280;28;20766;-94
2023/01/14 01:48:33;;;;;;;12.75;2.63;;;7.50;99.90;;;;;;5037104;28;20096;-92
2023/01/14 01:51:05;;;;;;;14.63;3.03;;;7.20;99.90;;;;;;5053567;28;20040;-91
2023/01/14 01:53:35;;;;;;;9.30;2.30;;;7.20;99.90;;;;;;5032600;28;20052;-93
2023/01/14 01:56:02;;;;;;;12.10;2.60;;;7.20;99.90;;;;;;5047244;28;20047;-92
2023/01/14 01:58:30;;;;;;;17.02;2.97;;;7.20;99.90;;;;;;5037475;28;20047;-92
2023/01/14 02:00:55;;;;;;;16.50;3.17;;;7.40;99.90;;;;;;5036199;28;20529;-92
2023/01/14 02:03:29;;;;;;;13.02;2.97;;;7.20;99.90;;;;;;5036330;28;20048;-92
2023/01/14 02:05:55;;;;;;;16.52;2.97;;;7.40;99.90;;;;;;5036199;28;20039;-91
2023/01/14 02:08:21;;;;;;;12.63;2.95;;;7.20;99.90;;;;;;5053655;28;20040;-93
2023/01/14 02:11:04;;;;;;;14.77;2.78;;;7.50;99.90;;;;;;5048491;28;20037;-92
2023/01/14 02:13:57;;;;;;;16.65;3.38;;;7.30;99.90;;;;;;5049001;28;20489;-90
2023/01/14 02:16:35;;;;;;;13.50;2.97;;;7.30;99.90;;;;;;5053556;28;20161;-92
2023/01/14 02:19:13;;;;;;;16.48;3.35;;;7.30;99.90;;;;;;5036535;28;20049;-93
2023/01/14 02:21:58;;;;;;;15.85;3.20;;;7.20;99.90;;;;;;5040304;28;20037;-93
2023/01/14 02:24:49;;;;;;;13.27;3.08;;;7.30;99.90;;;;;;5034092;28;20044;-91
2023/01/14 02:27:38;;;;;;;13.98;3.13;;;7.40;99.90;;;;;;5027421;28;20537;-95
2023/01/14 02:30:22;;;;;;;18.13;3.33;;;7.30;99.90;;;;;;5033628;28;20491;-92
2023/01/14 02:33:11;;;;;;;14.77;3.22;;;7.30;99.90;;;;;;5034992;28;20049;-94
2023/01/14 02:36:10;;;;;;;14.52;2.97;;;7.30;99.90;;;;;;5038175;28;20056;-92
2023/01/14 02:39:17;;;;;;;16.23;3.05;;;7.30;99.90;;;;;;5054931;28;20051;-93
2023/01/14 02:44:54;;;;;;;11.52;2.90;;;7.30;99.90;;;;;;5048208;28;20053;-94
2023/01/14 02:47:25;;;;;;;17.17;3.20;;;7.30;99.90;;;;;;5041911;28;20041;-91
2023/01/14 02:49:54;;;;;;;14.63;3.57;;;7.30;99.90;;;;;;5049001;28;20037;-92
2023/01/14 02:52:20;;;;;;;14.20;2.72;;;7.40;99.90;;;;;;5037984;28;20036;-91
2023/01/14 02:54:56;;;;;;;10.55;2.55;;;7.30;99.90;;;;;;5033319;28;20074;-92
2023/01/14 02:57:50;;;;;;;15.05;2.65;;;7.30;99.90;;;;;;5051457;28;20037;-94
2023/01/14 03:00:38;;;;;;;10.27;2.60;;;7.30;99.90;;;;;;5024467;28;20049;-92
2023/01/14 03:03:30;;;;;;;11.88;2.55;;;7.20;99.90;;;;;;5051594;28;20044;-92
2023/01/14 03:06:30;;;;;;;14.68;3.10;;;7.20;99.90;;;;;;5040971;28;20444;-94
2023/01/14 03:09:14;;;;;;;15.02;3.10;;;7.40;99.90;;;;;;5000923;28;20490;-93
2023/01/14 03:11:43;;;;;;;14.90;3.33;;;7.00;99.90;;;;;;5038461;28;20051;-92
2023/01/14 03:14:18;;;;;;;11.07;2.72;;;6.90;99.90;;;;;;5046458;28;20049;-91
2023/01/14 03:16:54;;;;;;;10.02;2.35;;;6.90;99.90;;;;;;5036263;28;20360;-92
2023/01/14 03:19:31;;;;;;;11.75;2.78;;;6.70;99.90;;;;;;5036631;28;20047;-92
2023/01/14 03:21:59;;;;;;;12.48;2.55;;;6.70;99.90;;;;;;5035865;28;20055;-94
2023/01/14 03:24:33;;;;;;;14.57;3.10;;;6.60;99.90;;;;;;5035772;28;20076;-93
2023/01/14 03:27:18;;;;;;;10.93;3.20;;;6.50;99.90;;;;;;5035425;28;20076;-93
2023/01/14 03:29:48;;;;;;;11.77;2.55;;;6.40;99.90;;;;;;5036243;28;20052;-93
2023/01/14 03:32:30;;;;;;;10.85;2.95;;;6.30;99.90;;;;;;5035385;28;20797;-92
2023/01/14 03:35:05;;;;;;;;;;;6.20;99.90;;;;;;5036679;28;20144;-91
2023/01/14 03:37:31;;;;;;;17.75;2.65;;;6.40;99.90;;;;;;5035797;28;19924;-93
2023/01/14 03:40:09;;;;;;;11.55;2.55;;;6.10;99.90;;;;;;5034578;28;20083;-92
2023/01/14 03:42:43;;;;;;;15.77;2.60;;;6.00;99.90;;;;;;5035342;28;20455;-92
2023/01/14 03:45:32;;;;;;;11.38;2.55;;;6.00;99.90;;;;;;5051325;28;20080;-92
2023/01/14 03:48:14;;;;;;;16.60;3.75;;;5.90;99.90;;;;;;5035460;28;20502;-92
2023/01/14 03:51:16;;;;;;;13.33;2.47;;;5.90;99.90;;;;;;5035321;28;20098;-92
2023/01/14 03:53:47;;;;;;;16.47;2.63;;;5.80;99.90;;;;;;5036132;28;20318;-93
2023/01/14 03:56:28;;;;;;;14.13;2.67;;;5.80;99.90;;;;;;5034831;28;20055;-94
2023/01/14 03:59:12;;;;;;;14.43;3.20;;;5.90;99.90;;;;;;5035846;28;20131;-92
2023/01/14 04:01:54;;;;;;;9.35;2.28;;;5.90;99.90;;;;;;5034035;28;20056;-93
2023/01/14 04:04:24;;;;;;;9.88;2.15;;;6.20;99.90;;;;;;5052227;28;20051;-93
2023/01/14 04:06:53;;;;;;;15.43;2.92;;;6.10;99.90;;;;;;5034393;28;20802;-93
2023/01/14 04:09:19;;;;;;;13.52;2.50;;;6.30;99.90;;;;;;5036404;28;20131;-92
2023/01/14 04:11:45;;;;;;;12.38;2.88;;;5.90;99.90;;;;;;5034496;28;20124;-93
2023/01/14 04:16:54;;;;;;;10.95;2.35;;;5.80;99.90;;;;;;5047147;28;20044;-92
2023/01/14 04:19:20;;;;;;;11.60;2.72;;;5.90;99.90;;;;;;5054138;28;20048;-90
2023/01/14 04:21:48;;;;;;;16.02;2.95;;;5.90;99.90;;;;;;5055467;28;20140;-90
2023/01/14 04:24:14;;;;;;;8.68;2.45;;;5.90;99.90;;;;;;5056367;28;20040;-92
2023/01/14 04:26:40;;;;;;;12.98;2.75;;;5.90;99.90;;;;;;5055575;28;20078;-91
2023/01/14 04:29:06;;;;;;;13.63;2.70;;;5.80;99.90;;;;;;5038679;28;20060;-90
2023/01/14 04:31:31;;;;;;;13.32;3.03;;;5.80;99.90;;;;;;5039191;28;20044;-91
2023/01/14 04:33:57;;;;;;;11.25;3.22;;;5.80;99.90;;;;;;5037441;28;20049;-91
2023/01/14 04:36:23;;;;;;;13.93;2.50;;;5.90;99.90;;;;;;5055288;28;20585;-91
2023/01/14 04:38:48;;;;;;;11.05;2.95;;;5.70;99.90;;;;;;5054723;28;20040;-92
2023/01/14 04:43:59;;;;;;;17.85;2.95;;;5.70;99.90;;;;;;5054069;28;20044;-91
2023/01/14 04:46:25;;;;;;;16.95;3.35;;;5.60;99.90;;;;;;5043133;28;20055;-91
2023/01/14 04:48:50;;;;;;;18.10;3.35;;;5.50;99.90;;;;;;5055176;28;20051;-91
2023/01/14 04:51:16;;;;;;;13.95;3.63;;;5.60;99.90;;;;;;5047844;28;20036;-92
2023/01/14 04:53:42;;;;;;;18.88;3.72;;;5.60;99.90;;;;;;5053890;28;20143;-90
2023/01/14 04:56:08;;;;;;;14.75;3.25;;;5.50;99.90;;;;;;5045703;28;20047;-90
2023/01/14 04:58:33;;;;;;;14.23;3.05;;;5.50;99.90;;;;;;5037618;28;20048;-91
2023/01/14 05:01:00;;;;;;;15.95;3.13;;;5.60;99.90;;;;;;5037746;28;20127;-92
2023/01/14 05:03:26;;;;;;;13.90;2.80;;;5.50;99.90;;;;;;5037280;28;20041;-91
2023/01/14 05:05:52;;;;;;;15.43;3.33;;;5.50;99.90;;;;;;5053527;28;20038;-91
2023/01/14 05:08:19;;;;;;;18.17;3.72;;;5.50;99.90;;;;;;5041048;28;20048;-91
2023/01/14 05:10:47;;;;;;;12.52;3.28;;;5.50;99.90;;;;;;5038256;28;20036;-91
2023/01/14 05:13:13;;;;;;;18.25;3.63;;;5.50;99.90;;;;;;5055748;28;20048;-90
2023/01/14 05:15:41;;;;;;;12.95;3.63;;;5.50;99.90;;;;;;5053401;28;20439;-91
2023/01/14 05:18:08;;;;;;;16.40;3.97;;;5.50;99.90;;;;;;5037663;28;20051;-90
2023/01/14 05:20:34;;;;;;;16.15;4.03;;;5.50;99.90;;;;;;5054212;28;20108;-92
2023/01/14 05:23:03;;;;;;;14.70;4.25;;;5.90;99.90;;;;;;5041477;28;20132;-91
2023/01/14 05:25:31;;;;;;;19.23;3.97;;;5.50;99.90;;;;;;5037835;28;20047;-92
2023/01/14 05:28:03;;;;;;;19.05;3.78;;;5.50;99.90;;;;;;5054552;28;20040;-90
2023/01/14 05:30:28;;;;;;;16.75;4.47;;;5.90;99.90;;;;;;5053485;28;20037;-92
2023/01/14 05:32:54;;;;;;;18.95;3.70;;;5.40;99.90;;;;;;5038085;28;20052;-91
2023/01/14 05:35:21;;;;;;;18.38;3.95;;;5.50;99.90;;;;;;5037545;28;20073;-92
2023/01/14 05:37:47;;;;;;;13.00;3.95;;;5.90;99.90;;;;;;5036867;28;20505;-92
2023/01/14 05:40:13;;;;;;;27.35;4.25;;;5.40;99.90;;;;;;5038836;28;20033;-92
2023/01/14 05:45:38;;;;;;;13.57;4.03;;;5.40;99.90;;;;;;5054390;28;20349;-89
2023/01/14 05:48:09;;;;;;;18.83;4.38;;;5.40;99.90;;;;;;5037831;28;20056;-92
2023/01/14 05:50:38;;;;;;;16.17;3.77;;;5.50;99.90;;;;;;5038227;28;20040;-91
2023/01/14 05:53:08;;;;;;;20.95;4.43;;;5.40;99.90;;;;;;5065983;28;20307;-91
2023/01/14 05:55:34;;;;;;;15.13;3.78;;;5.40;99.90;;;;;;5054535;28;20144;-90
2023/01/14 05:58:02;;;;;;;26.05;5.13;;;5.60;99.90;;;;;;5053339;28;20045;-90
2023/01/14 06:06:21;;;;;;;21.20;4.28;;;5.40;99.90;;;;;;5070150;28;20041;-90
2023/01/14 06:09:06;;;;;;;19.60;4.88;;;5.40;99.90;;;;;;5049099;28;20059;-89
2023/01/14 06:11:32;;;;;;;19.63;5.28;;;5.40;99.90;;;;;;5054972;28;20048;-90
2023/01/14 06:14:01;;;;;;;24.45;5.40;;;5.30;99.90;;;;;;5022822;28;20892;-91
2023/01/14 06:16:30;;;;;;;29.05;5.50;;;5.40;99.90;;;;;;5052141;28;20127;-91
2023/01/14 06:18:56;;;;;;;23.65;5.78;;;5.40;99.90;;;;;;5036749;28;20113;-91
2023/01/14 06:21:30;;;;;;;20.48;5.00;;;5.40;99.90;;;;;;5038169;28;20036;-91
2023/01/14 06:23:57;;;;;;;19.70;5.15;;;5.40;99.90;;;;;;5049623;28;20047;-91
2023/01/14 06:26:28;;;;;;;24.38;5.15;;;5.40;99.90;;;;;;5034275;28;20046;-91
2023/01/14 06:29:03;;;;;;;24.52;4.75;;;5.40;99.90;;;;;;5034361;28;20048;-92
2023/01/14 06:31:29;;;;;;;22.98;5.20;;;5.40;99.90;;;;;;5052209;28;20037;-91
2023/01/14 06:33:57;;;;;;;20.58;6.20;;;5.60;99.90;;;;;;5051934;28;20036;-92
2023/01/14 06:36:24;;;;;;;23.35;5.13;;;5.40;99.90;;;;;;5050564;28;20041;-91
2023/01/14 06:38:49;;;;;;;17.60;5.80;;;5.40;99.90;;;;;;5054120;28;20036;-90
2023/01/14 06:41:15;;;;;;;28.25;5.03;;;5.40;99.90;;;;;;5040277;28;20108;-92
2023/01/14 06:43:41;;;;;;;22.15;5.60;;;5.40;99.90;;;;;;5042142;28;20407;-92
2023/01/14 06:46:11;;;;;;;20.90;5.15;;;5.40;99.90;;;;;;5040226;28;20080;-93
2023/01/14 06:48:38;;;;;;;22.77;5.32;;;5.40;99.90;;;;;;5043952;28;20044;-93
2023/01/14 06:51:05;;;;;;;24.70;5.53;;;5.40;99.90;;;;;;5036643;28;20053;-92
2023/01/14 06:53:31;;;;;;;18.75;5.25;;;5.50;99.90;;;;;;5041167;28;20625;-93
2023/01/14 06:56:06;;;;;;;29.33;5.38;;;5.50;99.90;;;;;;5061619;28;20036;-93
2023/01/14 06:58:31;;;;;;;30.05;4.70;;;6.10;99.90;;;;;;5041210;28;20135;-92
2023/01/14 07:00:58;;;;;;;23.27;6.13;;;5.50;99.90;;;;;;5043358;28;20068;-92
2023/01/14 07:03:25;;;;;;;25.08;5.13;;;5.80;99.90;;;;;;5045502;28;20189;-94
2023/01/14 07:05:51;;;;;;;25.73;5.78;;;5.60;99.90;;;;;;5043599;28;20045;-92
2023/01/14 07:08:17;;;;;;;28.63;4.65;;;5.60;99.90;;;;;;5040900;28;20158;-91
2023/01/14 07:10:49;;;;;;;24.48;4.68;;;5.70;99.90;;;;;;5054047;28;20076;-92
2023/01/14 07:13:15;;;;;;;27.63;4.53;;;5.60;99.90;;;;;;5027293;28;20982;-91
2023/01/14 07:15:43;;;;;;;23.42;5.75;;;6.20;99.90;;;;;;5045586;28;20047;-92
2023/01/14 07:18:09;;;;;;;22.85;5.18;;;5.70;99.90;;;;;;5039412;28;20037;-93
2023/01/14 07:20:35;;;;;;;31.30;6.07;;;5.60;99.90;;;;;;5036808;28;20053;-92
2023/01/14 07:23:02;;;;;;;23.77;5.47;;;5.70;99.90;;;;;;5042292;28;20396;-90
2023/01/14 07:25:30;;;;;;;24.75;5.22;;;6.10;99.90;;;;;;5038356;28;20063;-91
2023/01/14 07:27:56;;;;;;;23.80;5.22;;;5.70;99.90;;;;;;5037036;28;20037;-90
2023/01/14 07:30:21;;;;;;;29.05;6.22;;;5.80;99.90;;;;;;5048104;28;20044;-93
2023/01/14 07:32:47;;;;;;;32.85;5.47;;;5.70;99.90;;;;;;5039871;28;20048;-92
2023/01/14 07:35:13;;;;;;;20.13;5.40;;;5.70;99.90;;;;;;5038481;28;20060;-91
2023/01/14 07:37:42;;;;;;;25.90;5.50;;;5.60;99.90;;;;;;5037807;28;20133;-91
2023/01/14 07:40:08;;;;;;;26.45;6.45;;;5.70;99.90;;;;;;5038097;28;20124;-93
2023/01/14 07:42:34;;;;;;;23.10;5.10;;;5.80;99.90;;;;;;5037978;28;20047;-91
2023/01/14 07:44:59;;;;;;;24.63;5.90;;;5.80;99.90;;;;;;5041431;28;20040;-91
2023/01/14 07:47:25;;;;;;;16.35;4.63;;;5.60;99.90;;;;;;5041637;28;20040;-91
2023/01/14 07:49:53;;;;;;;25.90;5.35;;;5.80;99.90;;;;;;5023683;28;20045;-90
2023/01/14 07:52:22;;;;;;;23.30;4.88;;;5.90;99.90;;;;;;5043144;28;20051;-93
2023/01/14 07:54:50;;;;;;;18.70;4.65;;;5.90;99.90;;;;;;5055133;28;20045;-92
2023/01/14 07:57:19;;;;;;;23.65;4.55;;;5.90;99.90;;;;;;5055561;28;20067;-92
2023/01/14 07:59:44;;;;;;;24.33;4.88;;;5.90;99.90;;;;;;5057113;28;20047;-91
2023/01/14 08:02:12;;;;;;;26.40;4.78;;;5.90;99.90;;;;;;5056738;28;20032;-90
2023/01/14 08:04:38;;;;;;;19.13;4.20;;;5.90;99.90;;;;;;5041720;28;20124;-93
2023/01/14 08:07:10;;;;;;;19.02;4.78;;;5.90;99.90;;;;;;5036053;28;20147;-91
2023/01/14 08:09:36;;;;;;;;;;;5.90;99.90;;;;;;5033390;28;20044;-90
2023/01/14 08:12:02;;;;;;;20.88;4.60;;;6.00;99.90;;;;;;5035057;28;19974;-92
2023/01/14 08:14:28;;;;;;;21.55;5.47;;;6.00;99.90;;;;;;5017826;28;20415;-92
2023/01/14 08:16:53;;;;;;;23.20;4.72;;;6.00;99.90;;;;;;5016828;28;20045;-92
2023/01/14 08:19:19;;;;;;;25.70;4.60;;;6.00;99.90;;;;;;5031700;28;20127;-92
2023/01/14 08:21:47;;;;;;;20.95;4.40;;;6.00;99.90;;;;;;5032924;28;20045;-93
2023/01/14 08:24:12;;;;;;;18.88;4.47;;;6.00;99.90;;;;;;5052467;28;20108;-92
2023/01/14 08:26:38;;;;;;;23.30;4.07;;;6.20;99.90;;;;;;5036229;28;20136;-92
2023/01/14 08:29:07;;;;;;;42.00;6.95;;;6.00;99.90;;;;;;5034581;28;20139;-92
2023/01/14 08:31:33;;;;;;;25.83;4.25;;;6.00;99.90;;;;;;5037037;28;20404;-93
2023/01/14 08:33:59;;;;;;;24.45;5.55;;;6.00;99.90;;;;;;5037703;28;20049;-93
2023/01/14 08:36:25;;;;;;;21.55;5.75;;;6.00;99.90;;;;;;5038257;28;20094;-92
2023/01/14 08:38:54;;;;;;;22.02;5.25;;;6.00;99.90;;;;;;5035317;28;20044;-90
2023/01/14 08:41:23;;;;;;;25.42;6.53;;;6.00;99.90;;;;;;5035809;28;20445;-92
2023/01/14 08:43:56;;;;;;;18.85;4.72;;;6.00;99.90;;;;;;5036113;28;20047;-90
2023/01/14 08:46:22;;;;;;;19.92;4.45;;;6.10;99.90;;;;;;5034339;28;20044;-88
2023/01/14 08:48:51;;;;;;;21.17;6.13;;;6.00;99.90;;;;;;5034347;28;20093;-90
2023/01/14 08:51:26;;;;;;;25.98;9.35;;;6.40;99.90;;;;;;5035610;28;20059;-90
2023/01/14 08:53:55;;;;;;;33.45;8.70;;;6.00;99.90;;;;;;5035403;28;20514;-89
2023/01/14 08:56:30;;;;;;;23.98;4.47;;;6.00;99.90;;;;;;5037291;28;20098;-90
2023/01/14 08:59:06;;;;;;;24.95;7.60;;;6.00;99.90;;;;;;5034873;28;20040;-91
2023/01/14 09:01:34;;;;;;;23.50;4.63;;;6.00;99.90;;;;;;5035689;28;20185;-90
2023/01/14 09:04:00;;;;;;;14.52;4.60;;;6.00;99.90;;;;;;5037543;28;20051;-90
2023/01/14 09:06:28;;;;;;;21.45;4.05;;;6.00;99.90;;;;;;5037927;28;20371;-90
2023/01/14 09:17:25;;;;;;;15.70;4.05;;;;;;;;;;5051879;28;20108;-91
2023/01/14 09:19:59;;;;;;;19.40;4.35;;;;;;;;;;5035671;28;20063;-90
2023/01/14 09:22:31;;;;;;;18.08;6.15;;;5.90;99.90;;;;;;5053991;28;20509;-90
2023/01/14 09:24:56;;;;;;;21.42;3.90;;;6.10;99.90;;;;;;5044225;28;20063;-91
2023/01/14 09:27:27;;;;;;;20.10;4.10;;;;;;;;;;5057554;28;20075;-89
2023/01/14 09:29:55;;;;;;;15.85;4.70;;;;;;;;;;5059547;28;20053;-89
2023/01/14 09:32:21;;;;;;;16.23;4.95;;;;;;;;;;5067576;28;20127;-89
2023/01/14 09:34:49;;;;;;;20.63;4.72;;;;;;;;;;5067511;28;20053;-90
2023/01/14 09:37:16;;;;;;;18.63;3.50;;;;;;;;;;5056231;28;20070;-90
2023/01/14 09:39:42;;;;;;;13.90;4.05;;;;;;;;;;5036406;28;20056;-90
2023/01/14 09:42:11;;;;;;;16.02;3.75;;;;;;;;;;5036759;28;20040;-94
2023/01/14 09:44:37;;;;;;;11.00;3.90;;;;;;;;;;5039075;28;20055;-91
2023/01/14 09:47:10;;;;;;;13.77;3.70;;;;;;;;;;5037258;28;20040;-88
2023/01/14 09:49:36;;;;;;;11.50;3.10;;;6.20;99.90;;;;;;5036637;28;20127;-91
2023/01/14 09:52:35;;;;;;;17.30;3.10;;;6.30;99.90;;;;;;5037952;28;20085;-89
2023/01/14 09:55:21;;;;;;;12.07;3.20;;;6.30;99.90;;;;;;5037706;28;20045;-89
2023/01/14 09:57:57;;;;;;;12.57;2.80;;;6.30;99.90;;;;;;5036163;28;20040;-91
2023/01/14 10:00:32;;;;;;;12.43;3.30;;;6.40;99.90;;;;;;5036651;28;20123;-88
2023/01/14 10:03:23;;;;;;;14.50;3.35;;;6.20;99.90;;;;;;5036629;28;20501;-89
2023/01/14 10:06:13;;;;;;;12.25;2.78;;;6.30;99.90;;;;;;5035741;28;20060;-91
2023/01/14 10:08:56;;;;;;;10.60;2.35;;;6.20;99.90;;;;;;5028075;28;20053;-86
2023/01/14 10:11:25;;;;;;;13.25;2.70;;;6.40;99.90;;;;;;5053571;28;20516;-89
2023/01/14 10:14:19;;;;;;;9.50;3.20;;;6.80;99.90;;;;;;5036448;28;20040;-89
2023/01/14 10:16:49;;;;;;;13.25;3.38;;;6.20;99.90;;;;;;5037870;28;20040;-89
2023/01/14 10:19:25;;;;;;;12.40;3.00;;;6.40;99.90;;;;;;5037557;28;20749;-90
2023/01/14 10:22:22;;;;;;;13.05;3.20;;;6.50;99.90;;;;;;5036107;28;20055;-90
2023/01/14 10:24:48;;;;;;;7.47;2.50;;;6.50;99.90;;;;;;5027042;28;20055;-91
2023/01/14 10:27:16;;;;;;;9.65;2.67;;;6.50;99.90;;;;;;5035827;28;20037;-91
2023/01/14 10:29:44;;;;;;;5.07;2.53;;;6.50;99.90;;;;;;5036820;28;20051;-90
2023/01/14 10:32:13;;;;;;;6.88;2.50;;;6.60;99.90;;;;;;5036041;28;20044;-89
2023/01/14 10:34:41;;;;;;;14.32;3.20;;;;;;;;;;5036657;28;20056;-91
2023/01/14 10:37:08;;;;;;;12.55;3.55;;;6.60;99.90;;;;;;5053611;28;20080;-90
2023/01/14 10:39:34;;;;;;;7.82;3.08;;;6.60;99.90;;;;;;5055172;28;20531;-91
2023/01/14 10:42:01;;;;;;;5.78;3.42;;;6.80;99.90;;;;;;5052844;28;20182;-90
2023/01/14 10:44:46;;;;;;;9.85;3.40;;;6.70;99.90;;;;;;5053465;28;20041;-90
2023/01/14 10:47:17;;;;;;;7.30;3.42;;;6.80;99.90;;;;;;5051285;28;20088;-90
2023/01/14 10:49:59;;;;;;;5.40;2.40;;;6.70;99.90;;;;;;5036079;28;20461;-88
2023/01/14 10:52:35;;;;;;;6.50;2.72;;;6.70;99.90;;;;;;5049947;28;20044;-88
2023/01/14 10:55:17;;;;;;;7.65;3.05;;;7.40;99.90;;;;;;5027668;28;20399;-89
2023/01/14 10:58:06;;;;;;;5.97;2.97;;;6.80;99.90;;;;;;5034442;28;20048;-88
2023/01/14 11:00:42;;;;;;;5.97;2.80;;;6.80;99.90;;;;;;5036061;28;20140;-90
2023/01/14 11:03:24;;;;;;;7.70;3.05;;;6.90;99.90;;;;;;5042400;28;20036;-90
2023/01/14 11:06:01;;;;;;;5.40;2.23;;;;;;;;;;5051454;28;20113;-91
2023/01/14 11:08:47;;;;;;;7.38;2.90;;;;;;;;;;5037757;28;20048;-89
2023/01/14 11:11:20;;;;;;;7.15;2.70;;;7.20;99.90;;;;;;5052997;28;20560;-91
2023/01/14 11:13:55;;;;;;;7.65;2.70;;;7.00;99.90;;;;;;5036503;28;20124;-91
2023/01/14 11:16:36;;;;;;;5.30;2.60;;;7.10;99.90;;;;;;5036321;28;20062;-89
2023/01/14 11:19:31;;;;;;;5.53;2.67;;;7.30;99.90;;;;;;5036717;28;20049;-89
2023/01/14 11:25:32;;;;;;;6.22;2.40;;;;;;;;;;4961236;28;20911;-91
2023/01/14 11:28:15;;;;;;;;;;;;;;;;;;;;;
2023/01/14 11:31:08;;;;;;;5.22;2.58;;;;;;;;;;5058722;28;20036;-89
2023/01/14 11:33:49;;;;;;;8.38;2.58;;;;;;;;;;5079116;28;20209;-90
2023/01/14 11:36:38;;;;;;;7.80;2.65;;;;;;;;;;5027787;28;20128;-90
2023/01/14 11:39:38;;;;;;;3.38;2.20;;;;;;;;;;5028567;28;20186;-89
2023/01/14 11:48:22;;;;;;;5.22;2.22;;;;;;;;;;5015866;28;20053;-89
2023/01/14 11:50:59;;;;;;;4.15;2.08;;;;;;;;;;5010958;28;20045;-89
2023/01/14 11:53:48;;;;;;;5.47;2.00;;;;;;;;;;5016625;28;20138;-89
2023/01/14 11:59:59;;;;;;;;;;;;;;;;;;;;;
2023/01/14 12:03:00;;;;;;;5.72;2.47;;;;;;;;;;5027629;28;20128;-90
2023/01/14 12:08:46;;;;;;;5.30;2.20;;;7.40;99.90;;;;;;5025956;28;20060;-88
2023/01/14 12:12:14;;;;;;;6.35;2.42;;;7.80;99.90;;;;;;5022827;28;20157;-88
2023/01/14 12:17:55;;;;;;;4.20;1.75;;;7.40;99.90;;;;;;5028007;28;20091;-86
2023/01/14 12:20:31;;;;;;;5.63;2.03;;;7.40;99.90;;;;;;5019363;28;20148;-86
2023/01/14 12:23:15;;;;;;;3.95;2.08;;;7.40;99.90;;;;;;5028035;28;20106;-88
2023/01/14 12:25:54;;;;;;;5.65;2.30;;;7.50;99.90;;;;;;5028150;28;20080;-87
2023/01/14 12:28:55;;;;;;;;;;;;;;;;;;;;;
2023/01/14 12:31:49;;;;;;;4.38;2.00;;;7.30;99.90;;;;;;5026784;28;20049;-87
2023/01/14 12:34:49;;;;;;;4.85;2.22;;;7.50;99.90;;;;;;5027305;28;20049;-87
2023/01/14 12:37:23;;;;;;;4.03;1.70;;;7.60;99.90;;;;;;5036024;28;20082;-87
2023/01/14 12:45:49;;;;;;;4.57;2.17;;;7.90;99.90;;;;;;5050393;28;20057;-88
2023/01/14 12:48:20;;;;;;;4.45;1.80;;;7.70;99.90;;;;;;5032970;28;20392;-88
2023/01/14 12:51:08;;;;;;;5.93;1.92;;;7.80;99.90;;;;;;5049362;28;20040;-86
2023/01/14 12:53:36;;;;;;;4.35;1.88;;;7.80;99.90;;;;;;5050042;28;20056;-88
2023/01/14 12:56:06;;;;;;;3.45;1.85;;;7.90;99.90;;;;;;5049157;28;20033;-86
2023/01/14 12:58:38;;;;;;;3.78;1.75;;;7.90;99.90;;;;;;5030943;28;20052;-87
2023/01/14 13:01:07;;;;;;;7.40;3.00;;;8.00;99.90;;;;;;5033458;28;20049;-87
2023/01/14 13:03:46;;;;;;;4.32;2.00;;;8.00;99.90;;;;;;5033460;28;20080;-87
2023/01/14 13:06:38;;;;;;;6.50;3.30;;;8.10;99.90;;;;;;5033280;28;20083;-86
2023/01/14 13:09:07;;;;;;;4.57;1.63;;;8.20;99.90;;;;;;5046836;28;20426;-86
2023/01/14 13:11:48;;;;;;;4.30;1.48;;;8.50;99.90;;;;;;5049527;28;20048;-86
2023/01/14 13:14:38;;;;;;;2.88;2.00;;;8.20;99.90;;;;;;5032226;28;20080;-89
2023/01/14 13:17:17;;;;;;;5.10;2.50;;;8.30;99.90;;;;;;5049600;28;20394;-89
2023/01/14 13:19:52;;;;;;;5.50;2.72;;;7.40;99.90;;;;;;5048945;28;20037;-88
2023/01/14 13:22:45;;;;;;;5.18;2.72;;;8.40;99.90;;;;;;5049681;28;20075;-87
2023/01/14 13:25:45;;;;;;;2.80;1.70;;;8.40;99.90;;;;;;5032609;28;20049;-88
2023/01/14 13:28:14;;;;;;;3.58;1.80;;;8.50;99.90;;;;;;5047937;28;20045;-89
2023/01/14 13:31:21;;;;;;;2.20;1.50;;;8.50;99.90;;;;;;5031614;28;20049;-90
2023/01/14 13:34:21;;;;;;;1.83;1.30;;;8.50;99.90;;;;;;5030385;28;20053;-88
2023/01/14 13:36:47;;;;;;;1.65;1.40;;;8.50;99.90;;;;;;5033209;28;20064;-90
2023/01/14 13:39:18;;;;;;;3.85;1.30;;;8.50;99.90;;;;;;5024066;28;20487;-89
2023/01/14 13:41:48;;;;;;;1.40;1.23;;;8.70;99.90;;;;;;5051206;28;20044;-88
2023/01/14 13:44:37;;;;;;;2.85;1.40;;;8.20;99.90;;;;;;5052070;28;20060;-88
2023/01/14 13:47:28;;;;;;;2.08;1.20;;;9.20;99.90;;;;;;5044486;28;20048;-86
2023/01/14 13:50:36;;;;;;;1.55;1.20;;;8.90;99.90;;;;;;5039291;28;20050;-88
2023/01/14 13:53:27;;;;;;;1.67;1.27;;;8.80;99.90;;;;;;5008158;28;20090;-88
2023/01/14 13:56:00;;;;;;;1.88;1.10;;;8.70;99.90;;;;;;5047599;28;20056;-87
2023/01/14 13:58:43;;;;;;;2.67;1.20;;;9.50;99.90;;;;;;5035501;28;20044;-89
2023/01/14 14:01:59;;;;;;;;;;;;;;;;;;;;;
2023/01/14 14:04:57;;;;;;;1.45;1.10;;;8.80;99.90;;;;;;5052028;28;20044;-88
2023/01/14 14:07:47;;;;;;;1.50;1.23;;;8.90;99.90;;;;;;5031805;28;20515;-89
2023/01/14 14:10:46;;;;;;;2.80;1.30;;;8.90;99.90;;;;;;5032372;28;20656;-88
2023/01/14 14:17:00;;;;;;;1.40;1.10;;;8.00;99.90;;;;;;5069430;28;20098;-88
2023/01/14 14:19:54;;;;;;;2.00;1.33;;;9.20;99.90;;;;;;5033737;28;20091;-88
2023/01/14 14:22:27;;;;;;;1.50;1.40;;;9.00;99.90;;;;;;5043932;28;20065;-87
2023/01/14 14:24:57;;;;;;;1.25;1.17;;;8.90;99.90;;;;;;5054873;28;20141;-93
2023/01/14 14:27:36;;;;;;;1.33;1.20;;;9.00;99.90;;;;;;5038733;28;20119;-93
2023/01/14 14:30:17;;;;;;;1.20;1.02;;;9.00;99.90;;;;;;5041902;28;20052;-90
2023/01/14 14:32:45;;;;;;;1.95;1.20;;;9.10;99.90;;;;;;5036326;28;20513;-92